createdAt,value
2016-04-02T00:00:19.907Z,2.63
2016-04-02T00:01:18.692Z,2.72
2016-04-02T00:02:19.413Z,2.67
2016-04-02T00:03:19.541Z,2.71
2016-04-02T00:04:19.279Z,2.69
2016-04-02T00:05:18.640Z,2.71
2016-04-02T00:06:19.393Z,2.71
2016-04-02T00:07:18.615Z,2.6
2016-04-02T00:08:18.585Z,2.71
2016-04-02T00:09:18.573Z,2.61
2016-04-02T00:10:19.231Z,2.54
2016-04-02T00:11:18.563Z,2.56
2016-04-02T00:12:18.721Z,2.53
2016-04-02T00:13:18.537Z,2.6
2016-04-02T00:14:18.540Z,2.57
2016-04-02T00:15:32.714Z,2.57
2016-04-02T00:16:18.514Z,2.59
2016-04-02T00:17:18.532Z,2.6
2016-04-02T00:18:18.675Z,2.57
2016-04-02T00:19:18.959Z,2.57
2016-04-02T00:20:18.977Z,2.61
2016-04-02T00:21:18.606Z,2.69
2016-04-02T00:22:18.858Z,2.64
2016-04-02T00:23:18.455Z,2.61
2016-04-02T00:24:18.426Z,2.64
2016-04-02T00:25:18.444Z,2.61
2016-04-02T00:26:18.447Z,2.63
2016-04-02T00:27:18.403Z,2.67
2016-04-02T00:28:18.406Z,2.64
2016-04-02T00:29:18.377Z,2.59
2016-04-02T00:30:18.379Z,2.6
2016-04-02T00:31:18.382Z,2.59
2016-04-02T00:32:18.369Z,2.59
2016-04-02T00:33:18.371Z,2.57
2016-04-02T00:34:18.343Z,2.54
2016-04-02T00:35:18.335Z,2.56
2016-04-02T00:36:18.307Z,2.57
2016-04-02T00:37:18.325Z,2.6
2016-04-02T00:38:18.281Z,2.57
2016-04-02T00:39:18.315Z,2.6
2016-04-02T00:40:18.286Z,2.48
2016-04-02T00:41:18.133Z,2.49
2016-04-02T00:42:18.292Z,2.45
2016-04-02T00:43:18.262Z,2.59
2016-04-02T00:44:18.235Z,2.48
2016-04-02T00:45:18.237Z,2.52
2016-04-02T00:46:18.256Z,2.52
2016-04-02T00:47:18.227Z,2.48
2016-04-02T00:48:18.214Z,2.52
2016-04-02T00:49:18.186Z,2.53
2016-04-02T00:50:18.172Z,2.39
2016-04-02T00:51:18.175Z,2.39
2016-04-02T00:52:18.147Z,2.43
2016-04-02T00:53:18.149Z,2.41
2016-04-02T00:54:18.136Z,2.36
2016-04-02T00:55:18.139Z,2.39
2016-04-02T00:56:18.126Z,2.39
2016-04-02T00:57:18.113Z,2.36
2016-04-02T00:58:18.099Z,2.35
2016-04-02T00:59:17.369Z,2.41
2016-04-02T01:00:18.074Z,2.28
2016-04-02T01:01:18.077Z,2.38
2016-04-02T01:02:18.080Z,2.27
2016-04-02T01:03:18.082Z,2.36
2016-04-02T01:04:18.038Z,2.27
2016-04-02T01:05:18.026Z,2.27
2016-04-02T01:06:18.029Z,2.18
2016-04-02T01:07:18.015Z,2.25
2016-04-02T01:08:18.017Z,2.14
2016-04-02T01:09:18.005Z,2.18
2016-04-02T01:10:17.993Z,2.2
2016-04-02T01:11:17.948Z,2.17
2016-04-02T01:12:19.170Z,2.14
2016-04-02T01:13:17.937Z,2.12
2016-04-02T01:14:17.956Z,2.06
2016-04-02T01:15:17.911Z,2.06
2016-04-02T01:16:17.931Z,2.17
2016-04-02T01:17:17.886Z,2.1
2016-04-02T01:18:17.919Z,2.06
2016-04-02T01:19:18.828Z,2
2016-04-02T01:20:20.253Z,2.05
2016-04-02T01:21:17.881Z,2.03
2016-04-02T01:22:18.009Z,2.07
2016-04-02T01:23:17.840Z,1.95
2016-04-02T01:24:18.452Z,1.93
2016-04-02T01:25:32.016Z,1.99
2016-04-02T01:26:18.175Z,2.02
2016-04-02T01:27:18.397Z,1.91
2016-04-02T01:28:17.994Z,1.91
2016-04-02T01:29:17.794Z,1.9
2016-04-02T01:30:17.764Z,1.98
2016-04-02T01:31:17.783Z,1.98
2016-04-02T01:32:17.989Z,1.9
2016-04-02T01:33:17.757Z,1.95
2016-04-02T01:34:18.166Z,1.99
2016-04-02T01:35:18.528Z,1.88
2016-04-02T01:36:17.687Z,1.91
2016-04-02T01:37:32.237Z,1.86
2016-04-02T01:38:17.693Z,1.84
2016-04-02T01:39:17.679Z,1.79
2016-04-02T01:40:17.682Z,1.8
2016-04-02T01:41:17.654Z,1.8
2016-04-02T01:42:17.546Z,1.79
2016-04-02T01:43:17.643Z,1.77
2016-04-02T01:44:17.615Z,1.84
2016-04-02T01:45:17.617Z,1.79
2016-04-02T01:46:17.589Z,1.79
2016-04-02T01:47:17.592Z,1.77
2016-04-02T01:48:17.562Z,1.77
2016-04-02T01:49:17.581Z,1.72
2016-04-02T01:50:17.552Z,1.79
2016-04-02T01:51:17.555Z,1.73
2016-04-02T01:52:17.542Z,1.79
2016-04-02T01:53:17.373Z,1.69
2016-04-02T01:54:17.516Z,1.69
2016-04-02T01:55:17.519Z,1.81
2016-04-02T01:56:17.484Z,1.76
2016-04-02T01:57:17.459Z,1.7
2016-04-02T01:58:17.466Z,1.69
2016-04-02T01:59:17.410Z,1.7
2016-04-02T02:00:17.401Z,1.66
2016-04-02T02:01:17.381Z,1.63
2016-04-02T02:02:17.395Z,1.59
2016-04-02T02:03:17.347Z,1.66
2016-04-02T02:04:17.345Z,1.6
2016-04-02T02:05:17.328Z,1.55
2016-04-02T02:06:17.313Z,1.59
2016-04-02T02:07:17.282Z,1.59
2016-04-02T02:08:17.309Z,1.54
2016-04-02T02:09:17.263Z,1.58
2016-04-02T02:10:17.264Z,1.59
2016-04-02T02:11:17.250Z,1.6
2016-04-02T02:12:17.222Z,1.6
2016-04-02T02:13:17.224Z,1.51
2016-04-02T02:14:17.210Z,1.54
2016-04-02T02:15:17.206Z,1.59
2016-04-02T02:16:17.209Z,1.52
2016-04-02T02:17:17.195Z,1.52
2016-04-02T02:18:17.181Z,1.48
2016-04-02T02:19:17.152Z,1.55
2016-04-02T02:20:17.170Z,1.51
2016-04-02T02:21:17.142Z,1.48
2016-04-02T02:22:17.144Z,1.45
2016-04-02T02:23:17.115Z,1.5
2016-04-02T02:24:17.087Z,1.52
2016-04-02T02:25:17.089Z,1.51
2016-04-02T02:26:17.061Z,1.5
2016-04-02T02:27:17.096Z,1.42
2016-04-02T02:28:17.067Z,1.5
2016-04-02T02:29:17.132Z,1.5
2016-04-02T02:30:17.025Z,1.47
2016-04-02T02:31:18.122Z,1.37
2016-04-02T02:32:17.015Z,1.41
2016-04-02T02:33:17.034Z,1.5
2016-04-02T02:34:17.318Z,1.36
2016-04-02T02:35:17.320Z,1.37
2016-04-02T02:36:16.979Z,1.37
2016-04-02T02:37:16.967Z,1.36
2016-04-02T02:38:17.625Z,1.4
2016-04-02T02:39:17.737Z,1.4
2016-04-02T02:40:16.911Z,1.33
2016-04-02T02:41:16.900Z,1.33
2016-04-02T02:42:17.730Z,1.37
2016-04-02T02:43:16.905Z,1.4
2016-04-02T02:44:17.001Z,1.36
2016-04-02T02:46:31.163Z,1.32
2016-04-02T02:47:17.697Z,1.41
2016-04-02T02:48:16.855Z,1.36
2016-04-02T02:49:17.327Z,1.36
2016-04-02T02:50:16.829Z,1.3
2016-04-02T02:51:16.816Z,1.4
2016-04-02T02:52:16.788Z,1.4
2016-04-02T02:53:18.290Z,1.44
2016-04-02T02:54:17.512Z,1.36
2016-04-02T02:55:16.968Z,1.27
2016-04-02T02:56:31.080Z,1.32
2016-04-02T02:57:16.755Z,1.33
2016-04-02T02:58:17.585Z,1.3
2016-04-02T02:59:17.070Z,1.29
2016-04-02T03:00:17.104Z,1.22
2016-04-02T03:01:16.715Z,1.23
2016-04-02T03:02:16.687Z,1.24
2016-04-02T03:03:16.690Z,1.27
2016-04-02T03:04:16.661Z,1.27
2016-04-02T03:05:16.649Z,1.27
2016-04-02T03:06:16.636Z,1.15
2016-04-02T03:07:16.639Z,1.16
2016-04-02T03:08:16.610Z,1.22
2016-04-02T03:09:16.598Z,1.09
2016-04-02T03:10:16.615Z,1.09
2016-04-02T03:11:16.587Z,1.15
2016-04-02T03:12:16.573Z,1.12
2016-04-02T03:13:16.576Z,1.15
2016-04-02T03:14:16.564Z,0.98
2016-04-02T03:15:16.535Z,1.05
2016-04-02T03:16:16.538Z,0.98
2016-04-02T03:17:16.508Z,1.04
2016-04-02T03:18:16.511Z,1
2016-04-02T03:19:16.499Z,1.02
2016-04-02T03:20:16.502Z,1.12
2016-04-02T03:21:16.473Z,1.09
2016-04-02T03:22:16.475Z,1.05
2016-04-02T03:23:16.463Z,1.02
2016-04-02T03:24:16.434Z,1.05
2016-04-02T03:25:16.421Z,1.02
2016-04-02T03:26:16.408Z,1.04
2016-04-02T03:27:16.426Z,1
2016-04-02T03:28:16.382Z,1
2016-04-02T03:29:16.401Z,1.05
2016-04-02T03:30:16.357Z,1.04
2016-04-02T03:31:16.204Z,1.11
2016-04-02T03:32:16.346Z,0.97
2016-04-02T03:33:16.334Z,0.97
2016-04-02T03:34:16.320Z,1
2016-04-02T03:35:16.339Z,1
2016-04-02T03:36:16.310Z,1.02
2016-04-02T03:37:16.298Z,0.98
2016-04-02T03:38:16.315Z,0.96
2016-04-02T03:39:16.256Z,1.08
2016-04-02T03:40:16.273Z,0.97
2016-04-02T03:41:16.245Z,0.96
2016-04-02T03:42:16.248Z,1.04
2016-04-02T03:43:16.220Z,0.91
2016-04-02T03:44:16.223Z,0.97
2016-04-02T03:45:16.194Z,0.91
2016-04-02T03:46:16.212Z,0.87
2016-04-02T03:47:16.184Z,0.94
2016-04-02T03:48:16.733Z,0.91
2016-04-02T03:49:16.173Z,0.88
2016-04-02T03:50:17.379Z,0.88
2016-04-02T03:51:16.132Z,0.86
2016-04-02T03:52:16.134Z,0.88
2016-04-02T03:53:16.105Z,0.88
2016-04-02T03:54:16.093Z,0.84
2016-04-02T03:55:16.079Z,0.88
2016-04-02T03:56:16.082Z,0.83
2016-04-02T03:57:17.179Z,0.87
2016-04-02T03:58:16.072Z,0.72
2016-04-02T03:59:16.044Z,0.86
2016-04-02T04:00:16.046Z,0.78
2016-04-02T04:01:16.018Z,0.84
2016-04-02T04:02:16.020Z,0.9
2016-04-02T04:03:17.539Z,0.84
2016-04-02T04:04:30.670Z,0.91
2016-04-02T04:05:15.966Z,0.88
2016-04-02T04:06:16.673Z,0.78
2016-04-02T04:07:15.926Z,0.86
2016-04-02T04:08:16.193Z,0.84
2016-04-02T04:09:16.024Z,0.8
2016-04-02T04:10:16.043Z,0.83
2016-04-02T04:11:15.904Z,0.75
2016-04-02T04:12:16.814Z,0.93
2016-04-02T04:13:30.209Z,0.9
2016-04-02T04:14:16.834Z,0.88
2016-04-02T04:15:15.884Z,0.83
2016-04-02T04:16:15.855Z,0.87
2016-04-02T04:17:15.842Z,0.88
2016-04-02T04:18:15.829Z,0.86
2016-04-02T04:19:15.816Z,0.84
2016-04-02T04:20:15.819Z,0.86
2016-04-02T04:21:15.791Z,0.86
2016-04-02T04:22:15.778Z,0.91
2016-04-02T04:23:15.764Z,0.91
2016-04-02T04:24:15.767Z,0.9
2016-04-02T04:25:15.755Z,0.91
2016-04-02T04:26:15.741Z,0.96
2016-04-02T04:27:15.729Z,0.97
2016-04-02T04:28:15.715Z,0.98
2016-04-02T04:29:15.718Z,0.96
2016-04-02T04:30:15.704Z,1.02
2016-04-02T04:31:15.692Z,0.97
2016-04-02T04:32:15.663Z,0.97
2016-04-02T04:33:15.666Z,1.02
2016-04-02T04:34:15.637Z,0.97
2016-04-02T04:35:15.672Z,0.96
2016-04-02T04:36:15.628Z,0.94
2016-04-02T04:37:15.615Z,0.97
2016-04-02T04:38:15.618Z,0.96
2016-04-02T04:39:15.604Z,0.98
2016-04-02T04:40:15.592Z,1.02
2016-04-02T04:41:15.562Z,1.06
2016-04-02T04:42:15.581Z,1.04
2016-04-02T04:43:15.553Z,1.02
2016-04-02T04:44:15.556Z,1.09
2016-04-02T04:45:15.528Z,1.05
2016-04-02T04:46:15.530Z,1.11
2016-04-02T04:47:15.501Z,1.2
2016-04-02T04:48:15.473Z,1.15
2016-04-02T04:49:15.475Z,1.15
2016-04-02T04:50:15.462Z,1.27
2016-04-02T04:51:15.464Z,1.23
2016-04-02T04:52:15.436Z,1.2
2016-04-02T04:53:15.439Z,1.37
2016-04-02T04:54:15.426Z,1.3
2016-04-02T04:55:15.429Z,1.44
2016-04-02T04:56:15.416Z,1.37
2016-04-02T04:57:15.371Z,1.42
2016-04-02T04:58:15.375Z,1.48
2016-04-02T04:59:15.393Z,1.54
2016-04-02T05:00:15.364Z,1.6
2016-04-02T05:01:15.196Z,1.6
2016-04-02T05:02:15.338Z,1.7
2016-04-02T05:03:15.326Z,1.79
2016-04-02T05:04:15.374Z,1.91
2016-04-02T05:05:15.315Z,2.02
2016-04-02T05:06:15.318Z,2.06
2016-04-02T05:07:15.882Z,2.17
2016-04-02T05:08:15.276Z,2.34
2016-04-02T05:09:16.637Z,2.64
2016-04-02T05:10:15.234Z,2.74
2016-04-02T05:11:15.237Z,2.89
2016-04-02T05:12:15.864Z,3.13
2016-04-02T05:13:15.212Z,3.24
2016-04-02T05:14:15.214Z,3.33
2016-04-02T05:15:15.217Z,3.52
2016-04-02T05:16:16.032Z,3.58
2016-04-02T05:17:16.034Z,3.69
2016-04-02T05:18:15.178Z,3.78
2016-04-02T05:19:15.164Z,3.91
2016-04-02T05:20:16.152Z,4.02
2016-04-02T05:21:15.155Z,4.14
2016-04-02T05:22:29.333Z,4.08
2016-04-02T05:23:15.223Z,4.05
2016-04-02T05:24:15.242Z,4.18
2016-04-02T05:25:15.119Z,4.29
2016-04-02T05:26:15.513Z,4.36
2016-04-02T05:27:15.343Z,4.36
2016-04-02T05:28:15.096Z,4.48
2016-04-02T05:29:15.099Z,4.65
2016-04-02T05:30:15.069Z,4.7
2016-04-02T05:31:15.401Z,4.67
2016-04-02T05:32:15.559Z,4.88
2016-04-02T05:33:14.327Z,4.89
2016-04-02T05:34:15.596Z,4.91
2016-04-02T05:35:15.239Z,5.06
2016-04-02T05:36:15.039Z,5.18
2016-04-02T05:37:15.010Z,5.22
2016-04-02T05:38:15.013Z,5.42
2016-04-02T05:39:15.016Z,5.6
2016-04-02T05:40:15.018Z,5.63
2016-04-02T05:41:14.990Z,5.78
2016-04-02T05:42:14.992Z,5.86
2016-04-02T05:43:14.979Z,5.94
2016-04-02T05:44:14.982Z,5.99
2016-04-02T05:45:14.250Z,6.03
2016-04-02T05:46:14.956Z,6.04
2016-04-02T05:47:14.943Z,6.12
2016-04-02T05:48:14.946Z,6.17
2016-04-02T05:49:14.995Z,6.18
2016-04-02T05:50:14.936Z,6.28
2016-04-02T05:51:14.923Z,6.31
2016-04-02T05:52:14.942Z,6.54
2016-04-02T05:53:14.913Z,6.58
2016-04-02T05:54:14.916Z,6.69
2016-04-02T05:55:14.934Z,6.76
2016-04-02T05:56:14.905Z,6.88
2016-04-02T05:57:14.892Z,6.94
2016-04-02T05:58:14.894Z,7.06
2016-04-02T05:59:14.882Z,7.07
2016-04-02T06:00:14.885Z,7.17
2016-04-02T06:01:14.872Z,7.24
2016-04-02T06:02:14.860Z,7.34
2016-04-02T06:03:14.846Z,7.58
2016-04-02T06:04:14.927Z,7.61
2016-04-02T06:05:14.836Z,7.85
2016-04-02T06:06:14.854Z,8.01
2016-04-02T06:07:14.826Z,8.12
2016-04-02T06:08:14.859Z,8.29
2016-04-02T06:09:14.831Z,8.45
2016-04-02T06:10:14.849Z,8.48
2016-04-02T06:11:14.836Z,8.77
2016-04-02T06:12:14.839Z,8.87
2016-04-02T06:13:14.809Z,8.98
2016-04-02T06:14:14.812Z,9.15
2016-04-02T06:15:14.815Z,9.33
2016-04-02T06:16:14.834Z,9.46
2016-04-02T06:17:14.806Z,9.47
2016-04-02T06:18:14.809Z,9.56
2016-04-02T06:19:14.811Z,9.61
2016-04-02T06:20:14.814Z,9.68
2016-04-02T06:21:14.800Z,9.86
2016-04-02T06:22:14.819Z,9.91
2016-04-02T06:23:14.791Z,10.04
2016-04-02T06:24:14.808Z,10.08
2016-04-02T06:25:14.811Z,10.07
2016-04-02T06:26:15.626Z,10.15
2016-04-02T06:27:15.066Z,10.2
2016-04-02T06:28:14.788Z,10.09
2016-04-02T06:29:14.806Z,10.15
2016-04-02T06:30:15.074Z,9.9
2016-04-02T06:31:14.780Z,9.9
2016-04-02T06:32:14.782Z,9.83
2016-04-02T06:33:15.005Z,9.86
2016-04-02T06:34:14.851Z,9.84
2016-04-02T06:35:15.588Z,9.94
2016-04-02T06:36:15.059Z,9.91
2016-04-02T06:37:15.437Z,10.01
2016-04-02T06:38:15.206Z,10.17
2016-04-02T06:39:14.771Z,10.34
2016-04-02T06:40:15.196Z,10.47
2016-04-02T06:41:15.386Z,10.63
2016-04-02T06:42:15.107Z,10.78
2016-04-02T06:43:29.316Z,11.03
2016-04-02T06:44:14.973Z,11.15
2016-04-02T06:45:15.365Z,11.22
2016-04-02T06:46:14.759Z,11.29
2016-04-02T06:47:14.761Z,11.33
2016-04-02T06:48:14.779Z,11.49
2016-04-02T06:49:14.845Z,11.67
2016-04-02T06:50:16.925Z,11.86
2016-04-02T06:51:15.787Z,11.9
2016-04-02T06:52:14.914Z,11.98
2016-04-02T06:53:15.855Z,12.01
2016-04-02T06:54:15.374Z,12.01
2016-04-02T06:55:14.861Z,12.13
2016-04-02T06:56:14.786Z,12.17
2016-04-02T06:57:15.116Z,12.23
2016-04-02T06:58:14.760Z,12.29
2016-04-02T06:59:14.762Z,12.37
2016-04-02T07:00:14.780Z,12.39
2016-04-02T07:01:14.768Z,12.42
2016-04-02T07:02:14.801Z,12.34
2016-04-02T07:03:14.788Z,12.47
2016-04-02T07:04:14.790Z,12.42
2016-04-02T07:05:14.762Z,12.45
2016-04-02T07:06:14.765Z,12.52
2016-04-02T07:07:14.768Z,12.57
2016-04-02T07:08:14.770Z,12.7
2016-04-02T07:09:14.758Z,12.74
2016-04-02T07:10:14.792Z,12.83
2016-04-02T07:11:14.763Z,13.01
2016-04-02T07:12:14.766Z,13.01
2016-04-02T07:13:14.784Z,13.03
2016-04-02T07:14:14.787Z,13.04
2016-04-02T07:15:14.774Z,13.04
2016-04-02T07:16:14.776Z,13.1
2016-04-02T07:17:14.795Z,13.15
2016-04-02T07:18:14.798Z,13.29
2016-04-02T07:19:14.878Z,13.22
2016-04-02T07:20:14.819Z,13.17
2016-04-02T07:21:14.790Z,13.22
2016-04-02T07:22:14.792Z,13.33
2016-04-02T07:23:14.795Z,13.52
2016-04-02T07:24:14.798Z,13.52
2016-04-02T07:25:14.785Z,13.59
2016-04-02T07:26:14.819Z,13.69
2016-04-02T07:27:14.790Z,13.73
2016-04-02T07:28:14.793Z,13.75
2016-04-02T07:29:14.811Z,13.78
2016-04-02T07:30:14.830Z,13.88
2016-04-02T07:31:14.849Z,14.14
2016-04-02T07:32:14.819Z,14.17
2016-04-02T07:33:14.822Z,14.24
2016-04-02T07:34:14.918Z,14.21
2016-04-02T07:35:14.843Z,14.28
2016-04-02T07:36:14.830Z,14.35
2016-04-02T07:37:14.849Z,14.45
2016-04-02T07:38:14.867Z,14.52
2016-04-02T07:39:14.870Z,14.6
2016-04-02T07:40:14.887Z,14.62
2016-04-02T07:41:14.875Z,14.75
2016-04-02T07:42:14.878Z,14.86
2016-04-02T07:43:14.896Z,15.01
2016-04-02T07:44:15.680Z,15.02
2016-04-02T07:45:14.901Z,15.07
2016-04-02T07:46:14.889Z,15.17
2016-04-02T07:47:15.422Z,15.17
2016-04-02T07:48:15.769Z,15.1
2016-04-02T07:49:15.490Z,15.14
2016-04-02T07:50:15.180Z,15.2
2016-04-02T07:51:14.949Z,15.23
2016-04-02T07:52:14.936Z,15.23
2016-04-02T07:53:15.017Z,15.34
2016-04-02T07:54:16.786Z,15.49
2016-04-02T07:55:14.975Z,15.51
2016-04-02T07:56:15.119Z,15.69
2016-04-02T07:57:14.964Z,15.59
2016-04-02T07:58:15.827Z,15.49
2016-04-02T07:59:15.016Z,15.41
2016-04-02T08:00:16.144Z,15.16
2016-04-02T08:01:16.569Z,15.07
2016-04-02T08:02:15.822Z,15.09
2016-04-02T08:03:15.122Z,15.06
2016-04-02T08:04:15.141Z,15.01
2016-04-02T08:05:15.049Z,14.92
2016-04-02T08:06:15.505Z,14.88
2016-04-02T08:07:15.148Z,14.94
2016-04-02T08:08:15.073Z,15.09
2016-04-02T08:09:16.262Z,15.02
2016-04-02T08:10:15.390Z,14.99
2016-04-02T08:11:15.096Z,14.95
2016-04-02T08:12:15.098Z,14.98
2016-04-02T08:13:15.257Z,14.86
2016-04-02T08:14:15.120Z,14.75
2016-04-02T08:15:15.123Z,14.68
2016-04-02T08:16:15.157Z,14.6
2016-04-02T08:17:15.112Z,14.4
2016-04-02T08:18:15.146Z,14.21
2016-04-02T08:19:15.227Z,14.03
2016-04-02T08:20:15.136Z,13.87
2016-04-02T08:21:15.139Z,13.77
2016-04-02T08:22:15.189Z,13.51
2016-04-02T08:23:15.176Z,13.52
2016-04-02T08:24:15.178Z,13.45
2016-04-02T08:25:15.165Z,13.36
2016-04-02T08:26:15.199Z,13.36
2016-04-02T08:27:15.202Z,13.23
2016-04-02T08:28:15.188Z,13.19
2016-04-02T08:29:15.207Z,13.14
2016-04-02T08:30:15.194Z,13.1
2016-04-02T08:31:15.197Z,13.01
2016-04-02T08:32:15.216Z,12.87
2016-04-02T08:33:15.218Z,12.75
2016-04-02T08:34:15.268Z,12.65
2016-04-02T08:35:15.238Z,12.46
2016-04-02T08:36:15.210Z,12.42
2016-04-02T08:37:15.212Z,12.42
2016-04-02T08:38:15.215Z,12.38
2016-04-02T08:39:15.218Z,12.24
2016-04-02T08:40:15.221Z,12.19
2016-04-02T08:41:15.192Z,12.19
2016-04-02T08:42:15.211Z,11.98
2016-04-02T08:43:15.213Z,11.86
2016-04-02T08:44:15.232Z,11.82
2016-04-02T08:45:15.218Z,11.85
2016-04-02T08:46:15.221Z,11.76
2016-04-02T08:47:15.209Z,11.69
2016-04-02T08:48:15.227Z,11.61
2016-04-02T08:49:15.292Z,11.62
2016-04-02T08:50:15.201Z,11.62
2016-04-02T08:51:15.234Z,11.58
2016-04-02T08:52:15.222Z,11.54
2016-04-02T08:53:15.209Z,11.57
2016-04-02T08:54:15.242Z,11.46
2016-04-02T08:55:15.199Z,11.54
2016-04-02T08:56:15.217Z,11.61
2016-04-02T08:57:15.220Z,11.6
2016-04-02T08:58:15.208Z,11.62
2016-04-02T08:59:15.210Z,11.69
2016-04-02T09:00:15.197Z,11.69
2016-04-02T09:01:15.215Z,11.67
2016-04-02T09:02:15.186Z,11.62
2016-04-02T09:04:16.083Z,11.79
2016-04-02T09:05:16.507Z,11.82
2016-04-02T09:06:15.197Z,11.79
2016-04-02T09:07:15.371Z,11.79
2016-04-02T09:08:15.202Z,11.73
2016-04-02T09:09:15.173Z,11.76
2016-04-02T09:10:15.192Z,11.82
2016-04-02T09:11:15.367Z,11.8
2016-04-02T09:12:15.166Z,11.79
2016-04-02T09:13:16.341Z,11.79
2016-04-02T09:14:15.171Z,11.85
2016-04-02T09:15:15.174Z,11.86
2016-04-02T09:16:16.412Z,11.83
2016-04-02T09:17:15.415Z,11.9
2016-04-02T09:18:15.480Z,11.91
2016-04-02T09:19:15.264Z,11.99
2016-04-02T09:20:15.470Z,11.9
2016-04-02T09:21:15.362Z,11.95
2016-04-02T09:22:15.147Z,11.95
2016-04-02T09:23:15.242Z,11.95
2016-04-02T09:24:15.152Z,12.01
2016-04-02T09:25:15.436Z,11.98
2016-04-02T09:26:15.408Z,12.01
2016-04-02T09:27:15.129Z,12.01
2016-04-02T09:28:15.131Z,12.09
2016-04-02T09:29:16.791Z,12.1
2016-04-02T09:30:15.683Z,12.04
2016-04-02T09:31:15.921Z,12.05
2016-04-02T09:32:16.188Z,12.05
2016-04-02T09:33:15.379Z,12.05
2016-04-02T09:34:15.225Z,12.13
2016-04-02T09:35:15.135Z,12.09
2016-04-02T09:36:15.122Z,12.05
2016-04-02T09:37:15.108Z,12.05
2016-04-02T09:38:15.127Z,12.17
2016-04-02T09:39:15.098Z,12.1
2016-04-02T09:40:15.102Z,12.12
2016-04-02T09:41:15.104Z,12.12
2016-04-02T09:42:15.107Z,12.2
2016-04-02T09:43:15.093Z,12.24
2016-04-02T09:44:15.112Z,12.17
2016-04-02T09:45:15.099Z,12.17
2016-04-02T09:46:15.101Z,12.24
2016-04-02T09:47:15.089Z,12.24
2016-04-02T09:48:15.075Z,12.31
2016-04-02T09:49:15.188Z,12.29
2016-04-02T09:50:15.081Z,12.39
2016-04-02T09:51:15.084Z,12.37
2016-04-02T09:52:15.070Z,12.46
2016-04-02T09:53:15.073Z,12.45
2016-04-02T09:54:15.076Z,12.52
2016-04-02T09:55:15.063Z,12.47
2016-04-02T09:56:15.097Z,12.52
2016-04-02T09:57:15.069Z,12.5
2016-04-02T09:58:15.072Z,12.59
2016-04-02T09:59:15.059Z,12.56
2016-04-02T10:00:15.061Z,12.68
2016-04-02T10:01:15.064Z,12.67
2016-04-02T10:02:15.050Z,12.68
2016-04-02T10:03:15.053Z,12.75
2016-04-02T10:04:15.088Z,12.67
2016-04-02T10:05:15.044Z,12.74
2016-04-02T10:06:15.047Z,12.78
2016-04-02T10:07:15.064Z,12.85
2016-04-02T10:08:15.052Z,12.82
2016-04-02T10:09:15.054Z,12.9
2016-04-02T10:10:15.026Z,12.83
2016-04-02T10:11:15.028Z,12.82
2016-04-02T10:12:15.015Z,12.89
2016-04-02T10:13:15.018Z,12.95
2016-04-02T10:14:15.021Z,12.9
2016-04-02T10:15:15.024Z,13.01
2016-04-02T10:16:15.042Z,13.01
2016-04-02T10:17:15.013Z,12.96
2016-04-02T10:18:15.031Z,13.1
2016-04-02T10:19:15.206Z,13.15
2016-04-02T10:20:15.020Z,13.14
2016-04-02T10:21:15.039Z,13.2
2016-04-02T10:22:15.854Z,13.14
2016-04-02T10:24:16.407Z,13.22
2016-04-02T10:25:15.019Z,13.22
2016-04-02T10:26:15.319Z,13.29
2016-04-02T10:27:15.071Z,13.23
2016-04-02T10:28:15.495Z,13.32
2016-04-02T10:29:15.045Z,13.36
2016-04-02T10:30:15.001Z,13.3
2016-04-02T10:31:15.004Z,13.28
2016-04-02T10:32:17.053Z,13.3
2016-04-02T10:33:14.978Z,13.39
2016-04-02T10:34:15.027Z,13.32
2016-04-02T10:35:14.983Z,13.38
2016-04-02T10:36:15.485Z,13.44
2016-04-02T10:37:15.519Z,13.41
2016-04-02T10:38:29.479Z,13.36
2016-04-02T10:39:15.182Z,13.41
2016-04-02T10:40:14.982Z,13.42
2016-04-02T10:42:14.971Z,13.46
2016-04-02T10:43:15.240Z,13.57
2016-04-02T10:44:14.945Z,13.52
2016-04-02T10:45:14.963Z,13.52
2016-04-02T10:46:14.981Z,13.55
2016-04-02T10:47:29.143Z,13.46
2016-04-02T10:48:16.128Z,13.57
2016-04-02T10:49:15.099Z,13.52
2016-04-02T10:50:29.136Z,13.59
2016-04-02T10:51:15.448Z,13.55
2016-04-02T10:52:14.951Z,13.62
2016-04-02T10:53:14.969Z,13.59
2016-04-02T10:54:15.207Z,13.62
2016-04-02T10:55:14.959Z,13.63
2016-04-02T10:56:14.962Z,13.62
2016-04-02T10:57:14.965Z,13.73
2016-04-02T10:58:14.936Z,13.75
2016-04-02T10:59:14.939Z,13.7
2016-04-02T11:00:14.941Z,13.78
2016-04-02T11:01:14.944Z,13.73
2016-04-02T11:02:14.961Z,13.73
2016-04-02T11:03:14.939Z,13.81
2016-04-02T11:04:14.977Z,13.79
2016-04-02T11:05:14.922Z,13.75
2016-04-02T11:06:14.883Z,13.77
2016-04-02T11:07:14.905Z,13.84
2016-04-02T11:08:14.856Z,13.82
2016-04-02T11:09:14.871Z,13.88
2016-04-02T11:10:14.869Z,13.91
2016-04-02T11:11:14.851Z,13.91
2016-04-02T11:12:14.850Z,13.99
2016-04-02T11:13:14.835Z,13.96
2016-04-02T11:14:14.868Z,14.06
2016-04-02T11:15:14.837Z,14.04
2016-04-02T11:16:14.854Z,14.02
2016-04-02T11:17:14.839Z,14.03
2016-04-02T11:18:14.827Z,14.03
2016-04-02T11:19:14.720Z,14.1
2016-04-02T11:20:14.691Z,14.09
2016-04-02T11:21:14.834Z,14.09
2016-04-02T11:22:14.820Z,14.09
2016-04-02T11:23:14.839Z,14.06
2016-04-02T11:24:14.826Z,14.15
2016-04-02T11:25:14.829Z,14.18
2016-04-02T11:26:14.801Z,14.24
2016-04-02T11:27:14.850Z,14.22
2016-04-02T11:28:14.821Z,14.29
2016-04-02T11:29:14.839Z,14.25
2016-04-02T11:30:14.795Z,14.28
2016-04-02T11:31:14.829Z,14.27
2016-04-02T11:32:14.816Z,14.33
2016-04-02T11:33:14.803Z,14.22
2016-04-02T11:34:14.869Z,14.39
2016-04-02T11:35:14.809Z,14.36
2016-04-02T11:36:14.812Z,14.33
2016-04-02T11:37:14.814Z,14.35
2016-04-02T11:38:14.786Z,14.37
2016-04-02T11:39:14.788Z,14.43
2016-04-02T11:40:14.791Z,14.42
2016-04-02T11:41:14.824Z,14.47
2016-04-02T11:42:14.796Z,14.55
2016-04-02T11:43:16.158Z,14.57
2016-04-02T11:44:14.817Z,14.52
2016-04-02T11:45:14.789Z,14.55
2016-04-02T11:46:14.807Z,14.52
2016-04-02T11:47:15.154Z,14.55
2016-04-02T11:48:15.015Z,14.55
2016-04-02T11:49:14.893Z,14.58
2016-04-02T11:50:14.818Z,14.55
2016-04-02T11:51:16.587Z,14.62
2016-04-02T11:52:14.808Z,14.64
2016-04-02T11:53:14.795Z,14.7
2016-04-02T11:54:15.704Z,14.72
2016-04-02T11:55:14.800Z,14.73
2016-04-02T11:56:15.271Z,14.77
2016-04-02T11:57:15.789Z,14.72
2016-04-02T11:58:28.964Z,14.88
2016-04-02T11:59:15.795Z,14.88
2016-04-02T12:00:14.828Z,14.84
2016-04-02T12:01:15.192Z,14.88
2016-04-02T12:02:14.787Z,14.83
2016-04-02T12:03:15.072Z,14.83
2016-04-02T12:04:14.855Z,14.89
2016-04-02T12:05:14.811Z,14.84
2016-04-02T12:06:14.986Z,14.8
2016-04-02T12:07:15.207Z,14.81
2016-04-02T12:08:29.616Z,14.88
2016-04-02T12:09:14.759Z,14.88
2016-04-02T12:10:14.762Z,14.84
2016-04-02T12:12:14.783Z,14.88
2016-04-02T12:13:14.771Z,14.81
2016-04-02T12:14:14.757Z,14.88
2016-04-02T12:15:14.776Z,14.94
2016-04-02T12:16:14.747Z,14.96
2016-04-02T12:17:14.765Z,14.89
2016-04-02T12:18:14.753Z,15.06
2016-04-02T12:19:14.833Z,15.03
2016-04-02T12:20:14.774Z,15.09
2016-04-02T12:21:14.776Z,15.14
2016-04-02T12:22:14.763Z,15.16
2016-04-02T12:23:14.766Z,15.16
2016-04-02T12:24:14.768Z,15.19
2016-04-02T12:25:14.771Z,15.1
2016-04-02T12:26:14.758Z,15.13
2016-04-02T12:27:14.746Z,15.2
2016-04-02T12:28:14.764Z,15.19
2016-04-02T12:29:14.751Z,15.16
2016-04-02T12:30:14.770Z,15.19
2016-04-02T12:31:14.756Z,15.13
2016-04-02T12:32:14.743Z,15.14
2016-04-02T12:33:14.777Z,15.2
2016-04-02T12:34:14.827Z,15.21
2016-04-02T12:35:14.766Z,15.19
2016-04-02T12:36:14.753Z,15.25
2016-04-02T12:37:14.756Z,15.17
2016-04-02T12:38:14.744Z,15.17
2016-04-02T12:39:14.747Z,15.2
2016-04-02T12:40:14.749Z,15.29
2016-04-02T12:41:14.752Z,15.23
2016-04-02T12:42:14.738Z,15.2
2016-04-02T12:43:14.742Z,15.17
2016-04-02T12:44:14.744Z,15.17
2016-04-02T12:45:14.747Z,15.28
2016-04-02T12:46:14.735Z,15.28
2016-04-02T12:47:14.737Z,15.28
2016-04-02T12:48:14.740Z,15.31
2016-04-02T12:49:14.805Z,15.25
2016-04-02T12:50:14.729Z,15.31
2016-04-02T12:51:14.763Z,15.34
2016-04-02T12:52:14.734Z,15.31
2016-04-02T12:53:14.754Z,15.39
2016-04-02T12:54:14.724Z,15.49
2016-04-02T12:55:14.759Z,15.34
2016-04-02T12:56:14.730Z,15.32
2016-04-02T12:57:14.732Z,15.39
2016-04-02T12:58:14.720Z,15.36
2016-04-02T12:59:14.737Z,15.35
2016-04-02T13:00:15.584Z,15.36
2016-04-02T13:01:14.727Z,15.39
2016-04-02T13:02:16.245Z,15.39
2016-04-02T13:03:14.733Z,15.36
2016-04-02T13:04:14.767Z,15.46
2016-04-02T13:05:14.739Z,15.39
2016-04-02T13:06:15.303Z,15.43
2016-04-02T13:07:15.134Z,15.49
2016-04-02T13:08:14.714Z,15.46
2016-04-02T13:09:14.733Z,15.49
2016-04-02T13:11:14.723Z,15.47
2016-04-02T13:12:14.726Z,15.39
2016-04-02T13:13:15.760Z,15.5
2016-04-02T13:14:14.731Z,15.44